createdAt,value
2023-09-17T00:00:16.380Z,13.84
2023-09-17T00:01:16.577Z,13.84
2023-09-17T00:02:16.715Z,13.84
2023-09-17T00:03:16.862Z,13.84
2023-09-17T00:04:17.011Z,13.679999
2023-09-17T00:05:17.130Z,13.599999
2023-09-17T00:06:17.282Z,13.52
2023-09-17T00:07:17.461Z,13.2
2023-09-17T00:08:17.589Z,13.12
2023-09-17T00:09:17.741Z,12.88
2023-09-17T00:10:17.930Z,12.799999
2023-09-17T00:11:17.999Z,12.719999
2023-09-17T00:12:18.143Z,12.719999
2023-09-17T00:13:18.287Z,12.799999
2023-09-17T00:14:18.397Z,13.04
2023-09-17T00:15:18.546Z,13.12
2023-09-17T00:16:18.774Z,13.04
2023-09-17T00:17:18.958Z,13.12
2023-09-17T00:18:19.030Z,12.719999
2023-09-17T00:19:19.223Z,12.719999
2023-09-17T00:20:19.310Z,12.639999
2023-09-17T00:21:19.465Z,12.32
2023-09-17T00:22:19.619Z,12.48
2023-09-17T00:23:19.776Z,12.32
2023-09-17T00:24:19.916Z,12.48
2023-09-17T00:25:20.118Z,12.639999
2023-09-17T00:26:20.223Z,12.719999
2023-09-17T00:27:20.374Z,12.639999
2023-09-17T00:28:20.537Z,12.48
2023-09-17T00:29:20.670Z,12.719999
2023-09-17T00:30:20.824Z,12.799999
2023-09-17T00:31:21.055Z,12.88
2023-09-17T00:32:21.133Z,12.88
2023-09-17T00:33:21.283Z,12.799999
2023-09-17T00:34:21.452Z,12.799999
2023-09-17T00:35:21.587Z,12.799999
2023-09-17T00:36:21.745Z,12.88
2023-09-17T00:37:21.895Z,12.799999
2023-09-17T00:38:22.055Z,12.799999
2023-09-17T00:39:22.192Z,12.799999
2023-09-17T00:40:22.370Z,12.799999
2023-09-17T00:41:22.502Z,12.799999
2023-09-17T00:42:22.647Z,12.88
2023-09-17T00:43:22.807Z,12.88
2023-09-17T00:44:22.953Z,12.88
2023-09-17T00:45:23.102Z,12.88
2023-09-17T00:46:23.322Z,12.88
2023-09-17T00:47:23.405Z,12.719999
2023-09-17T00:48:23.574Z,12.799999
2023-09-17T00:49:23.779Z,12.88
2023-09-17T00:50:23.870Z,12.719999
2023-09-17T00:51:24.013Z,12.48
2023-09-17T00:52:24.174Z,12.08
2023-09-17T00:53:24.318Z,12.08
2023-09-17T00:54:24.482Z,12.24
2023-09-17T00:55:24.638Z,12.32
2023-09-17T00:56:24.811Z,12.24
2023-09-17T00:57:24.980Z,12.719999
2023-09-17T00:58:25.154Z,12.639999
2023-09-17T00:59:25.288Z,12.639999
2023-09-17T01:00:25.430Z,12.48
2023-09-17T01:01:25.612Z,12.719999
2023-09-17T01:02:25.853Z,12.639999
2023-09-17T01:03:25.932Z,12.48
2023-09-17T01:04:26.069Z,12.48
2023-09-17T01:05:26.200Z,12.48
2023-09-17T01:06:26.301Z,12.639999
2023-09-17T01:07:26.495Z,12.719999
2023-09-17T01:08:26.701Z,12.719999
2023-09-17T01:09:26.809Z,12.719999
2023-09-17T01:10:26.985Z,12.719999
2023-09-17T01:11:27.114Z,12.719999
2023-09-17T01:12:27.263Z,12.639999
2023-09-17T01:13:27.432Z,12.48
2023-09-17T01:14:27.569Z,12.639999
2023-09-17T01:15:27.725Z,12.48
2023-09-17T01:16:28.104Z,12.719999
2023-09-17T01:17:28.034Z,12.719999
2023-09-17T01:18:28.174Z,12.88
2023-09-17T01:19:28.307Z,12.799999
2023-09-17T01:20:28.443Z,12.719999
2023-09-17T01:21:28.578Z,12.719999
2023-09-17T01:22:28.733Z,12.48
2023-09-17T01:23:28.888Z,12.48
2023-09-17T01:24:29.041Z,12.4
2023-09-17T01:25:29.211Z,12.4
2023-09-17T01:26:29.344Z,12.4
2023-09-17T01:27:29.495Z,12.48
2023-09-17T01:28:29.673Z,12.48
2023-09-17T01:29:29.799Z,12.639999
2023-09-17T01:30:29.951Z,12.639999
2023-09-17T01:31:30.173Z,12.719999
2023-09-17T01:32:30.290Z,12.719999
2023-09-17T01:33:30.445Z,12.639999
2023-09-17T01:34:31.533Z,12.639999
2023-09-17T01:35:30.716Z,12.639999
2023-09-17T01:36:30.863Z,12.719999
2023-09-17T01:37:30.984Z,12.639999
2023-09-17T01:38:31.118Z,12.639999
2023-09-17T01:39:31.266Z,12.639999
2023-09-17T01:40:31.458Z,12.719999
2023-09-17T01:41:31.579Z,12.639999
2023-09-17T01:42:31.725Z,12.48
2023-09-17T01:43:31.899Z,12.639999
2023-09-17T01:44:32.036Z,12.719999
2023-09-17T01:45:32.269Z,12.719999
2023-09-17T01:46:32.338Z,12.639999
2023-09-17T01:47:32.556Z,12.48
2023-09-17T01:48:32.636Z,12.48
2023-09-17T01:49:32.790Z,12.4
2023-09-17T01:50:32.937Z,12.639999
2023-09-17T01:51:33.094Z,12.639999
2023-09-17T01:52:33.285Z,12.799999
2023-09-17T01:53:33.405Z,12.799999
2023-09-17T01:54:33.549Z,12.719999
2023-09-17T01:55:33.752Z,12.719999
2023-09-17T01:56:33.853Z,12.799999
2023-09-17T01:57:34.007Z,12.88
2023-09-17T01:58:34.190Z,12.88
2023-09-17T01:59:34.311Z,13.04
2023-09-17T02:00:34.469Z,13.12
2023-09-17T02:01:34.688Z,13.2
2023-09-17T02:02:34.825Z,13.12
2023-09-17T02:03:35.001Z,12.88
2023-09-17T02:04:35.091Z,12.719999
2023-09-17T02:05:35.216Z,12.799999
2023-09-17T02:06:35.379Z,12.639999
2023-09-17T02:07:35.553Z,12.639999
2023-09-17T02:08:35.673Z,12.48
2023-09-17T02:09:35.831Z,12.48
2023-09-17T02:10:35.997Z,12.639999
2023-09-17T02:11:36.128Z,12.719999
2023-09-17T02:12:36.294Z,12.639999
2023-09-17T02:13:36.455Z,12.48
2023-09-17T02:14:36.587Z,12.4
2023-09-17T02:15:36.762Z,12.4
2023-09-17T02:16:36.925Z,12.32
2023-09-17T02:17:37.045Z,12.4
2023-09-17T02:18:37.147Z,12.32
2023-09-17T02:19:37.313Z,12.32
2023-09-17T02:20:37.437Z,12.4
2023-09-17T02:21:37.594Z,12.32
2023-09-17T02:22:37.762Z,12.32
2023-09-17T02:23:37.895Z,12.32
2023-09-17T02:24:38.047Z,12.32
2023-09-17T02:25:38.218Z,12.24
2023-09-17T02:26:38.348Z,12.24
2023-09-17T02:27:38.452Z,12.08
2023-09-17T02:28:38.623Z,12.24
2023-09-17T02:29:38.764Z,12.08
2023-09-17T02:30:38.901Z,12.24
2023-09-17T02:31:39.136Z,12.24
2023-09-17T02:32:39.262Z,12.32
2023-09-17T02:33:39.361Z,12.4
2023-09-17T02:34:39.542Z,12.4
2023-09-17T02:35:39.657Z,12.4
2023-09-17T02:36:39.774Z,12.32
2023-09-17T02:37:39.934Z,12.32
2023-09-17T02:38:40.070Z,12.4
2023-09-17T02:39:40.221Z,12.48
2023-09-17T02:40:40.327Z,12.4
2023-09-17T02:41:40.475Z,12.48
2023-09-17T02:42:40.628Z,12.639999
2023-09-17T02:43:40.878Z,12.639999
2023-09-17T02:44:40.947Z,12.719999
2023-09-17T02:45:41.082Z,12.719999
2023-09-17T02:46:41.357Z,12.639999
2023-09-17T02:47:41.689Z,12.719999
2023-09-17T02:48:41.544Z,12.88
2023-09-17T02:49:41.733Z,12.88
2023-09-17T02:50:41.846Z,12.719999
2023-09-17T02:51:42.004Z,12.799999
2023-09-17T02:52:42.159Z,13.04
2023-09-17T02:53:42.311Z,13.12
2023-09-17T02:54:42.471Z,13.44
2023-09-17T02:55:42.657Z,13.2
2023-09-17T02:56:42.756Z,13.12
2023-09-17T02:57:42.908Z,13.04
2023-09-17T02:58:43.041Z,12.88
2023-09-17T02:59:43.164Z,12.88
2023-09-17T03:00:43.329Z,12.719999
2023-09-17T03:01:43.530Z,12.88
2023-09-17T03:02:43.703Z,13.04
2023-09-17T03:03:43.770Z,12.88
2023-09-17T03:04:43.945Z,13.04
2023-09-17T03:05:44.074Z,12.88
2023-09-17T03:06:44.229Z,12.88
2023-09-17T03:07:44.379Z,12.88
2023-09-17T03:08:44.532Z,13.04
2023-09-17T03:09:44.682Z,12.799999
2023-09-17T03:10:44.867Z,12.88
2023-09-17T03:11:44.996Z,12.799999
2023-09-17T03:12:45.137Z,12.719999
2023-09-17T03:13:45.323Z,12.639999
2023-09-17T03:14:45.446Z,12.639999
2023-09-17T03:15:45.630Z,12.08
2023-09-17T03:16:45.883Z,12.24
2023-09-17T03:17:45.923Z,12.24
2023-09-17T03:18:46.050Z,12.08
2023-09-17T03:19:46.221Z,12.08
2023-09-17T03:20:46.356Z,12
2023-09-17T03:21:46.509Z,11.679999
2023-09-17T03:22:46.695Z,11.28
2023-09-17T03:23:46.813Z,11.44
2023-09-17T03:25:01.578Z,11.679999
2023-09-17T03:25:47.134Z,11.679999
2023-09-17T03:26:47.267Z,11.599999
2023-09-17T03:27:47.426Z,11.92
2023-09-17T03:28:47.642Z,11.679999
2023-09-17T03:29:47.724Z,12
2023-09-17T03:30:47.885Z,12
2023-09-17T03:31:48.039Z,11.92
2023-09-17T03:32:58.174Z,12
2023-09-17T03:33:48.554Z,12.08
2023-09-17T03:34:48.516Z,12.32
2023-09-17T03:35:48.636Z,12.48
2023-09-17T03:36:48.787Z,12.719999
2023-09-17T03:37:49.032Z,12.719999
2023-09-17T03:38:49.094Z,12.88
2023-09-17T03:39:49.244Z,13.04
2023-09-17T03:40:49.423Z,13.04
2023-09-17T03:41:49.541Z,13.04
2023-09-17T03:42:49.699Z,13.12
2023-09-17T03:43:50.024Z,13.04
2023-09-17T03:44:50.003Z,13.04
2023-09-17T03:45:50.165Z,13.44
2023-09-17T03:46:50.429Z,13.44
2023-09-17T03:47:50.469Z,13.44
2023-09-17T03:48:50.607Z,13.52
2023-09-17T03:49:50.753Z,13.52
2023-09-17T03:50:50.861Z,13.599999
2023-09-17T03:51:51.016Z,13.52
2023-09-17T03:52:51.187Z,13.52
2023-09-17T03:53:51.483Z,13.44
2023-09-17T03:54:51.478Z,13.52
2023-09-17T03:55:51.661Z,13.52
2023-09-17T03:56:51.792Z,13.52
2023-09-17T03:57:51.929Z,13.28
2023-09-17T03:58:52.086Z,13.2
2023-09-17T03:59:52.231Z,13.2
2023-09-17T04:00:52.398Z,13.12
2023-09-17T04:01:52.680Z,13.2
2023-09-17T04:02:52.685Z,13.28
2023-09-17T04:03:53.021Z,13.599999
2023-09-17T04:04:53.011Z,13.599999
2023-09-17T04:05:53.137Z,13.52
2023-09-17T04:06:53.290Z,13.599999
2023-09-17T04:07:53.486Z,13.679999
2023-09-17T04:08:53.604Z,13.52
2023-09-17T04:09:53.804Z,13.44
2023-09-17T04:10:53.925Z,13.599999
2023-09-17T04:11:54.070Z,13.679999
2023-09-17T04:12:54.199Z,13.52
2023-09-17T04:13:54.549Z,13.92
2023-09-17T04:14:54.501Z,14
2023-09-17T04:15:54.653Z,14.24
2023-09-17T04:16:54.859Z,14.24
2023-09-17T04:17:54.978Z,14.24
2023-09-17T04:18:55.114Z,14.08
2023-09-17T04:19:55.261Z,14.24
2023-09-17T04:20:55.424Z,14.32
2023-09-17T04:21:55.568Z,14.24
2023-09-17T04:22:55.799Z,14
2023-09-17T04:23:55.871Z,14.32
2023-09-17T04:24:56.087Z,14.32
2023-09-17T04:26:56.327Z,14.24
2023-09-17T04:27:56.483Z,14.08
2023-09-17T04:28:57.306Z,14.24
2023-09-17T04:30:56.953Z,14.24
2023-09-17T04:31:57.154Z,14.32
2023-09-17T04:32:57.247Z,14.24
2023-09-17T04:33:57.409Z,14.32
2023-09-17T04:34:57.571Z,14.24
2023-09-17T04:35:57.698Z,14.32
2023-09-17T04:36:57.860Z,14.4
2023-09-17T04:37:58.052Z,14.08
2023-09-17T04:38:58.163Z,14
2023-09-17T04:39:58.307Z,14.08
2023-09-17T04:40:58.476Z,14
2023-09-17T04:41:58.608Z,14.32
2023-09-17T04:42:58.767Z,14
2023-09-17T04:43:58.949Z,13.92
2023-09-17T04:44:59.077Z,13.92
2023-09-17T04:45:59.317Z,14.24
2023-09-17T04:46:59.423Z,14.4
2023-09-17T04:47:59.595Z,14
2023-09-17T04:48:59.688Z,13.599999
2023-09-17T04:49:59.873Z,14.08
2023-09-17T04:50:59.979Z,14.24
2023-09-17T04:52:00.136Z,13.92
2023-09-17T04:53:00.313Z,14.24
2023-09-17T04:54:00.486Z,14.08
2023-09-17T04:55:00.644Z,14.32
2023-09-17T04:56:00.877Z,14.24
2023-09-17T04:57:00.938Z,14.08
2023-09-17T04:58:01.093Z,13.92
2023-09-17T04:59:01.245Z,13.679999
2023-09-17T05:00:01.424Z,14.08
2023-09-17T05:01:01.508Z,14.4
2023-09-17T05:02:01.760Z,14.4
2023-09-17T05:03:01.846Z,14.32
2023-09-17T05:04:02.008Z,14.24
2023-09-17T05:05:02.100Z,14.08
2023-09-17T05:06:02.261Z,14
2023-09-17T05:07:02.405Z,13.28
2023-09-17T05:08:02.561Z,13.04
2023-09-17T05:09:02.714Z,12.799999
2023-09-17T05:10:02.869Z,12.639999
2023-09-17T05:11:03.053Z,12.719999
2023-09-17T05:12:03.172Z,12.639999
2023-09-17T05:13:03.324Z,12.639999
2023-09-17T05:14:03.487Z,12.639999
2023-09-17T05:15:03.632Z,12.32
2023-09-17T05:16:03.796Z,12.4
2023-09-17T05:17:03.944Z,12.4
2023-09-17T05:18:04.128Z,12.24
2023-09-17T05:19:04.231Z,12
2023-09-17T05:20:04.413Z,12
2023-09-17T05:21:04.532Z,12.24
2023-09-17T05:22:04.695Z,12.24
2023-09-17T05:23:04.845Z,12.08
2023-09-17T05:24:05.027Z,12.24
2023-09-17T05:25:05.207Z,12.32
2023-09-17T05:26:05.297Z,12.32
2023-09-17T05:27:05.462Z,12.08
2023-09-17T05:28:05.600Z,12.24
2023-09-17T05:29:05.837Z,12.799999
2023-09-17T05:30:05.910Z,13.12
2023-09-17T05:31:06.055Z,13.12
2023-09-17T05:32:06.349Z,13.12
2023-09-17T05:33:06.320Z,13.12
2023-09-17T05:34:06.465Z,13.679999
2023-09-17T05:35:06.613Z,13.52
2023-09-17T05:36:06.762Z,13.44
2023-09-17T05:37:06.915Z,13.92
2023-09-17T05:38:07.069Z,14.24
2023-09-17T05:39:07.233Z,14
2023-09-17T05:40:07.367Z,13.679999
2023-09-17T05:41:07.524Z,13.599999
2023-09-17T05:42:07.687Z,14.32
2023-09-17T05:43:07.829Z,15.28
2023-09-17T05:44:08.023Z,15.839999
2023-09-17T05:45:08.130Z,16
2023-09-17T05:46:08.297Z,16.08
2023-09-17T05:47:08.437Z,16.32
2023-09-17T05:48:08.633Z,16.48
2023-09-17T05:49:08.738Z,17.04
2023-09-17T05:50:08.912Z,17.12
2023-09-17T05:51:09.046Z,17.44
2023-09-17T05:52:09.190Z,17.44
2023-09-17T05:53:09.349Z,17.6
2023-09-17T05:54:09.495Z,17.76
2023-09-17T05:55:09.605Z,17.44
2023-09-17T05:56:09.752Z,17.28
2023-09-17T05:57:09.903Z,17.68
2023-09-17T05:58:10.054Z,17.76
2023-09-17T05:59:10.207Z,18.24
2023-09-17T06:00:10.367Z,17.52
2023-09-17T06:01:10.566Z,16.72
2023-09-17T06:02:10.689Z,16.64
2023-09-17T06:03:10.928Z,17.2
2023-09-17T06:04:10.970Z,17.68
2023-09-17T06:05:11.107Z,18
2023-09-17T06:06:11.248Z,17.52
2023-09-17T06:07:11.377Z,17.2
2023-09-17T06:08:12.786Z,17.44
2023-09-17T06:10:12.811Z,17.12
2023-09-17T06:12:13.261Z,17.52
2023-09-17T06:14:13.096Z,17.52
2023-09-17T06:16:13.086Z,18.88
2023-09-17T06:17:13.103Z,19.12
2023-09-17T06:18:13.292Z,19.6
2023-09-17T06:19:13.547Z,19.92
2023-09-17T06:20:13.567Z,20.88
2023-09-17T06:21:14.015Z,21.44
2023-09-17T06:22:13.829Z,21.6
2023-09-17T06:23:13.955Z,21.2
2023-09-17T06:24:14.629Z,21.6
2023-09-17T06:26:14.423Z,20.88
2023-09-17T06:27:14.573Z,21.12
2023-09-17T06:28:14.727Z,21.84
2023-09-17T06:29:15.428Z,22.24
2023-09-17T06:31:16.784Z,23.12
2023-09-17T06:33:15.812Z,22.48
2023-09-17T06:35:16.149Z,22
2023-09-17T06:37:16.478Z,22.24
2023-09-17T06:39:16.814Z,23.28
2023-09-17T06:41:17.203Z,24.24
2023-09-17T06:43:16.839Z,24.88
2023-09-17T06:44:16.992Z,25.2
2023-09-17T06:45:17.155Z,25.44
2023-09-17T06:46:17.324Z,25.2
2023-09-17T06:47:17.601Z,25.04
2023-09-17T06:48:17.619Z,25.44
2023-09-17T06:49:17.755Z,25.92
2023-09-17T06:50:17.905Z,25.84
2023-09-17T06:51:18.053Z,25.92
2023-09-17T06:52:19.494Z,25.44
2023-09-17T06:53:18.357Z,25.2
2023-09-17T06:54:18.508Z,25.6
2023-09-17T06:55:18.662Z,25.84
2023-09-17T06:56:18.810Z,26
2023-09-17T06:57:18.969Z,25.92
2023-09-17T06:58:19.117Z,26.08
2023-09-17T06:59:19.270Z,26.64
2023-09-17T07:00:19.417Z,26.64
2023-09-17T07:01:19.548Z,26.8
2023-09-17T07:02:19.798Z,27.6
2023-09-17T07:03:19.889Z,27.84
2023-09-17T07:04:20.031Z,28.08
2023-09-17T07:05:20.208Z,27.68
2023-09-17T07:06:20.335Z,27.84
2023-09-17T07:07:20.496Z,28
2023-09-17T07:08:20.659Z,28.32
2023-09-17T07:09:20.788Z,28.08
2023-09-17T07:10:20.947Z,27.52
2023-09-17T07:11:21.089Z,28.08
2023-09-17T07:12:21.243Z,27.2
2023-09-17T07:13:21.394Z,26.88
2023-09-17T07:14:21.543Z,27.52
2023-09-17T07:15:21.717Z,28.32
2023-09-17T07:16:21.883Z,27.2
2023-09-17T07:17:22.135Z,27.44
2023-09-17T07:18:22.185Z,26.64
2023-09-17T07:19:22.315Z,26.4
2023-09-17T07:20:22.459Z,26.72
2023-09-17T07:21:22.611Z,26.32
2023-09-17T07:22:22.789Z,25.68
2023-09-17T07:23:22.910Z,26.32
2023-09-17T07:24:23.064Z,26.88
2023-09-17T07:25:23.246Z,28
2023-09-17T07:26:23.368Z,27.28
2023-09-17T07:27:23.517Z,28.24
2023-09-17T07:28:23.686Z,26.88
2023-09-17T07:29:23.825Z,26.88
2023-09-17T07:30:23.973Z,27.68
2023-09-17T07:31:24.264Z,26.72
2023-09-17T07:32:24.280Z,27.44
2023-09-17T07:33:24.446Z,27.12
2023-09-17T07:34:24.703Z,27.6
2023-09-17T07:35:24.748Z,27.6
2023-09-17T07:36:24.984Z,27.28
2023-09-17T07:38:25.266Z,27.12
2023-09-17T07:39:25.397Z,27.92
2023-09-17T07:40:25.573Z,27.28
2023-09-17T07:41:25.711Z,27.44
2023-09-17T07:42:25.846Z,28.08
2023-09-17T07:43:25.967Z,28.24
2023-09-17T07:44:26.118Z,28.72
2023-09-17T07:45:26.255Z,28.32
2023-09-17T07:46:26.478Z,28.24
2023-09-17T07:47:26.609Z,26.88
2023-09-17T07:48:26.710Z,27.52
2023-09-17T07:49:26.877Z,27.68
2023-09-17T07:50:27.014Z,27.44
2023-09-17T07:51:27.174Z,28.88
2023-09-17T07:52:27.350Z,28.4
2023-09-17T07:53:27.481Z,27.52
2023-09-17T07:54:27.616Z,27.92
2023-09-17T07:55:27.815Z,28.24
2023-09-17T07:56:27.933Z,27.68
2023-09-17T07:57:28.080Z,27.6
2023-09-17T07:58:28.337Z,27.84
2023-09-17T07:59:28.397Z,28.24
2023-09-17T08:00:28.535Z,28.72
2023-09-17T08:01:28.760Z,28.72
2023-09-17T08:02:28.891Z,29.12
2023-09-17T08:03:29.109Z,28.48
2023-09-17T08:04:29.196Z,28.8
2023-09-17T08:05:29.296Z,28.32
2023-09-17T08:06:29.446Z,29.28
2023-09-17T08:07:29.652Z,28.8
2023-09-17T08:08:29.753Z,29.12
2023-09-17T08:09:29.901Z,28.64
2023-09-17T08:10:30.057Z,28.48
2023-09-17T08:11:30.212Z,27.92
2023-09-17T08:12:30.359Z,27.68
2023-09-17T08:13:30.555Z,27.44
2023-09-17T08:14:30.673Z,27.2
2023-09-17T08:15:30.813Z,27.52
2023-09-17T08:16:31.006Z,28
2023-09-17T08:17:31.190Z,27.68
2023-09-17T08:18:31.267Z,27.2
2023-09-17T08:19:31.462Z,27.44
2023-09-17T08:20:31.578Z,27.44
2023-09-17T08:21:33.130Z,27.28
2023-09-17T08:22:31.914Z,27.28
2023-09-17T08:23:32.063Z,27.2
2023-09-17T08:24:32.183Z,27.28
2023-09-17T08:25:32.370Z,27.04
2023-09-17T08:26:32.481Z,27.12
2023-09-17T08:27:32.633Z,27.04
2023-09-17T08:28:32.819Z,27.68
2023-09-17T08:29:32.947Z,27.6
2023-09-17T08:30:33.112Z,27.84
2023-09-17T08:31:33.259Z,28.24
2023-09-17T08:32:33.425Z,27.92
2023-09-17T08:33:33.565Z,28.08
2023-09-17T08:34:33.715Z,29.2
2023-09-17T08:35:33.849Z,29.2
2023-09-17T08:36:34.037Z,28.88
2023-09-17T08:37:34.175Z,29.04
2023-09-17T08:38:34.305Z,29.2
2023-09-17T08:39:34.464Z,28.88
2023-09-17T08:40:34.622Z,28.8
2023-09-17T08:41:34.774Z,29.44
2023-09-17T08:42:34.914Z,29.44
2023-09-17T08:43:35.076Z,28.48
2023-09-17T08:44:35.220Z,27.92
2023-09-17T08:45:35.373Z,27.92
2023-09-17T08:46:35.568Z,27.68
2023-09-17T08:47:35.698Z,28.88
2023-09-17T08:48:35.824Z,28.8
2023-09-17T08:49:36.007Z,28.64
2023-09-17T08:50:36.134Z,28.4
2023-09-17T08:51:36.294Z,28.64
2023-09-17T08:52:36.458Z,28.48
2023-09-17T08:53:36.596Z,27.84
2023-09-17T08:54:36.735Z,28.32
2023-09-17T08:55:36.944Z,28.32
2023-09-17T08:56:37.039Z,28.72
2023-09-17T08:57:37.196Z,28.64
2023-09-17T08:58:37.358Z,28.72
2023-09-17T08:59:37.512Z,28.4
2023-09-17T09:00:37.651Z,28.4
2023-09-17T09:01:37.844Z,28.32
2023-09-17T09:02:38.004Z,27.84
2023-09-17T09:03:38.150Z,27.84
2023-09-17T09:04:38.300Z,27.68
2023-09-17T09:05:38.421Z,27.84
2023-09-17T09:06:38.562Z,27.44
2023-09-17T09:07:38.741Z,26.48
2023-09-17T09:08:38.818Z,26.24
2023-09-17T09:09:38.976Z,25.92
2023-09-17T09:10:39.141Z,26.72
2023-09-17T09:11:39.272Z,27.28
2023-09-17T09:12:39.424Z,28.48
2023-09-17T09:13:39.612Z,28.72
2023-09-17T09:14:39.733Z,28.24
2023-09-17T09:15:39.879Z,28.8
2023-09-17T09:17:40.389Z,28.72
2023-09-17T09:19:41.351Z,28.8
2023-09-17T09:21:41.641Z,27.6
2023-09-17T09:23:41.872Z,28.8
2023-09-17T09:25:42.141Z,28.8
2023-09-17T09:27:42.415Z,27.28
2023-09-17T09:29:42.716Z,28.32
2023-09-17T09:31:43.008Z,27.92
2023-09-17T09:32:43.052Z,28.72
2023-09-17T09:33:42.832Z,29.52
2023-09-17T09:34:43.173Z,30.48
2023-09-17T09:36:47.999Z,29.28
2023-09-17T09:37:43.869Z,30.24
2023-09-17T09:38:43.803Z,30.72
2023-09-17T09:40:44.039Z,33.28
2023-09-17T09:42:44.868Z,35.28
2023-09-17T09:43:44.571Z,35.68
2023-09-17T09:44:44.549Z,34.4
2023-09-17T09:46:45.135Z,35.52
2023-09-17T09:48:45.363Z,34.32
2023-09-17T09:50:45.733Z,34.32
2023-09-17T09:52:45.224Z,34.56
2023-09-17T09:53:45.396Z,35.6
2023-09-17T09:54:45.584Z,35.68
2023-09-17T09:55:45.741Z,35.2
2023-09-17T09:56:46.430Z,34.56
2023-09-17T09:58:46.172Z,34.56
2023-09-17T09:59:46.316Z,34.8
2023-09-17T10:00:46.479Z,33.6
2023-09-17T10:01:46.577Z,35.12
2023-09-17T10:02:46.774Z,35.12
2023-09-17T10:03:46.869Z,36.08
2023-09-17T10:04:47.120Z,35.68
2023-09-17T10:05:47.125Z,34.8
2023-09-17T10:06:47.280Z,35.2
2023-09-17T10:07:47.435Z,36.32
2023-09-17T10:08:47.592Z,35.44
2023-09-17T10:09:47.784Z,33.84
2023-09-17T10:10:47.910Z,34.88
2023-09-17T10:11:48.037Z,37.12
2023-09-17T10:12:48.195Z,34
2023-09-17T10:13:48.354Z,34.56
2023-09-17T10:14:48.495Z,36.72
2023-09-17T10:15:48.660Z,33.92
2023-09-17T10:16:48.806Z,33.6
2023-09-17T10:17:48.966Z,35.44
2023-09-17T10:18:49.110Z,33.68
2023-09-17T10:19:49.258Z,34.4
2023-09-17T10:20:49.406Z,34.72
2023-09-17T10:21:49.561Z,35.44
2023-09-17T10:22:49.749Z,35.44
2023-09-17T10:23:50.094Z,35.28
2023-09-17T10:24:50.012Z,34
2023-09-17T10:25:50.186Z,33.84
2023-09-17T10:26:50.329Z,33.12
2023-09-17T10:27:50.474Z,33.68
2023-09-17T10:28:50.655Z,35.2
2023-09-17T10:29:50.783Z,35.84
2023-09-17T10:30:50.933Z,34.32
2023-09-17T10:31:51.091Z,33.28
2023-09-17T10:32:51.244Z,32.8
2023-09-17T10:33:51.592Z,34.24
2023-09-17T10:34:51.580Z,35.44
2023-09-17T10:35:51.694Z,34.8
2023-09-17T10:36:51.880Z,34.72
2023-09-17T10:37:52.055Z,34.72
2023-09-17T10:38:52.216Z,34.4
2023-09-17T10:39:52.340Z,33.28
2023-09-17T10:40:52.517Z,32.8
2023-09-17T10:41:52.638Z,34.88
2023-09-17T10:42:52.796Z,35.12
2023-09-17T10:43:53.129Z,34.48
2023-09-17T10:44:54.242Z,34.48
2023-09-17T10:45:53.196Z,35.68
2023-09-17T10:46:53.462Z,35.28
2023-09-17T10:47:53.548Z,34.8
2023-09-17T10:48:53.661Z,34.8
2023-09-17T10:49:53.833Z,36.32
2023-09-17T10:50:53.962Z,36.8
2023-09-17T10:51:54.109Z,38.32
2023-09-17T10:52:54.280Z,35.68
2023-09-17T10:53:54.411Z,36
2023-09-17T10:54:54.563Z,37.04
2023-09-17T10:55:54.806Z,35.04
2023-09-17T10:56:54.868Z,33.84
2023-09-17T10:57:55.022Z,33.6
2023-09-17T10:58:55.217Z,33.44
2023-09-17T10:59:55.274Z,34.08
2023-09-17T11:00:55.424Z,34.72
2023-09-17T11:01:55.613Z,35.04
2023-09-17T11:02:55.811Z,34.88
2023-09-17T11:03:56.058Z,34.24
2023-09-17T11:04:56.068Z,33.68
2023-09-17T11:05:56.183Z,34.8
2023-09-17T11:06:56.310Z,36.56
2023-09-17T11:07:56.474Z,36.4
2023-09-17T11:08:56.590Z,36.56
2023-09-17T11:09:56.749Z,35.2
2023-09-17T11:10:56.947Z,33.92
2023-09-17T11:11:57.046Z,34.24
2023-09-17T11:12:57.198Z,34.88
2023-09-17T11:13:57.445Z,37.12
2023-09-17T11:14:57.512Z,35.04
2023-09-17T11:15:57.777Z,34
2023-09-17T11:16:57.881Z,34.24
2023-09-17T11:17:57.987Z,33.28
2023-09-17T11:18:58.063Z,35.68
2023-09-17T11:19:58.257Z,36.08
2023-09-17T11:20:58.371Z,36.24
2023-09-17T11:21:58.520Z,37.28
2023-09-17T11:22:58.692Z,38.72
2023-09-17T11:23:58.826Z,37.04
2023-09-17T11:24:58.983Z,36.08
2023-09-17T11:25:59.171Z,37.04
2023-09-17T11:26:59.295Z,35.92
2023-09-17T11:27:59.428Z,35.12
2023-09-17T11:28:59.589Z,37.2
2023-09-17T11:29:59.740Z,37.84
2023-09-17T11:30:59.957Z,37.12
2023-09-17T11:32:00.091Z,34.88
2023-09-17T11:33:00.203Z,35.04
2023-09-17T11:34:00.348Z,36.32
2023-09-17T11:35:00.512Z,37.84
2023-09-17T11:36:00.700Z,36
2023-09-17T11:37:00.774Z,33.52
2023-09-17T11:38:00.911Z,34
2023-09-17T11:39:01.048Z,33.6
2023-09-17T11:40:01.204Z,33.28
2023-09-17T11:41:01.386Z,33.92
2023-09-17T11:42:01.516Z,35.2
2023-09-17T11:43:01.658Z,36.32
2023-09-17T11:44:01.847Z,36.48
2023-09-17T11:45:01.959Z,33.68
2023-09-17T11:46:02.175Z,35.52
2023-09-17T11:47:02.286Z,36.32
2023-09-17T11:48:02.470Z,37.2
2023-09-17T11:49:02.568Z,37.92
2023-09-17T11:50:02.750Z,35.68
2023-09-17T11:51:02.872Z,35.84
2023-09-17T11:52:03.034Z,34.56
2023-09-17T11:53:03.215Z,36.32
2023-09-17T11:54:03.351Z,36.8
2023-09-17T11:55:03.499Z,36.08
2023-09-17T11:56:03.673Z,36.56
2023-09-17T11:57:03.783Z,36.88
2023-09-17T11:58:03.937Z,37.6
2023-09-17T11:59:04.260Z,36.88
2023-09-17T12:00:04.186Z,34.24
2023-09-17T12:01:04.345Z,32.56
2023-09-17T12:02:04.528Z,33.92
2023-09-17T12:03:04.653Z,34.48
2023-09-17T12:04:04.808Z,34.4
2023-09-17T12:05:04.960Z,34.72
2023-09-17T12:06:05.112Z,34.8
2023-09-17T12:07:05.259Z,33.92
2023-09-17T12:08:05.425Z,33.28
2023-09-17T12:09:05.556Z,33.2
2023-09-17T12:10:05.712Z,32.72
2023-09-17T12:11:05.888Z,33.68
2023-09-17T12:12:06.019Z,33.04
2023-09-17T12:13:06.165Z,33.52
2023-09-17T12:14:06.321Z,34
2023-09-17T12:15:06.471Z,34.8
2023-09-17T12:16:06.664Z,33.44
2023-09-17T12:17:06.854Z,33.28
2023-09-17T12:18:06.947Z,32.32
2023-09-17T12:19:17.490Z,32
2023-09-17T12:20:07.285Z,33.04
2023-09-17T12:21:07.337Z,33.84
2023-09-17T12:22:07.486Z,33.68
2023-09-17T12:23:07.660Z,33.28
2023-09-17T12:24:07.794Z,33.84
2023-09-17T12:25:07.944Z,34.4
2023-09-17T12:26:08.127Z,32.56
2023-09-17T12:27:08.277Z,32.4
2023-09-17T12:28:08.396Z,32.48
2023-09-17T12:29:08.555Z,33.04
2023-09-17T12:30:08.697Z,34.32
2023-09-17T12:31:08.906Z,34.4
2023-09-17T12:32:09.049Z,33.6
2023-09-17T12:33:09.195Z,32.32
2023-09-17T12:34:09.303Z,31.52
2023-09-17T12:35:09.520Z,32.24
2023-09-17T12:36:09.614Z,32.56
2023-09-17T12:37:09.760Z,34.4
2023-09-17T12:38:09.969Z,34.32
2023-09-17T12:39:10.113Z,34.88
2023-09-17T12:40:10.275Z,35.12
2023-09-17T12:41:10.456Z,36.88
2023-09-17T12:42:10.583Z,36.72
2023-09-17T12:43:10.718Z,36.4
2023-09-17T12:44:10.906Z,36.32
2023-09-17T12:45:11.027Z,36.08
2023-09-17T12:46:11.206Z,35.6
2023-09-17T12:47:11.407Z,35.28
2023-09-17T12:48:11.485Z,36.24
2023-09-17T12:49:11.901Z,35.52
2023-09-17T12:50:12.169Z,34.32
2023-09-17T12:51:12.207Z,34.48
2023-09-17T12:52:12.384Z,36.24
2023-09-17T12:53:12.285Z,35.84
2023-09-17T12:54:12.353Z,36.08
2023-09-17T12:55:12.501Z,35.6
2023-09-17T12:56:12.667Z,35.92
2023-09-17T12:57:12.818Z,35.28
2023-09-17T12:58:12.953Z,35.6
2023-09-17T12:59:13.140Z,36.32
2023-09-17T13:00:13.257Z,36.48
2023-09-17T13:01:13.414Z,35.84
2023-09-17T13:02:13.594Z,36.08
2023-09-17T13:03:13.819Z,35.92
2023-09-17T13:04:13.900Z,34.08
2023-09-17T13:05:14.032Z,34.88
2023-09-17T13:06:14.165Z,34.32
2023-09-17T13:07:14.325Z,33.12
2023-09-17T13:08:14.470Z,34.08
2023-09-17T13:09:14.573Z,35.52
2023-09-17T13:10:14.727Z,35.04
2023-09-17T13:11:14.927Z,35.04
2023-09-17T13:12:15.028Z,34.72
2023-09-17T13:13:15.180Z,35.2
2023-09-17T13:14:15.342Z,35.12
2023-09-17T13:15:15.487Z,36.56
2023-09-17T13:16:15.659Z,35.12
2023-09-17T13:17:15.810Z,35.6